sensor_id;sensor_type;location;lat;lon;timestamp;P1;durP1;ratioP1;P2;durP2;ratioP2
18042;SDS011;9146;48.074;11.968;2022-09-17T00:02:25;10.13;;;8.23;;
18042;SDS011;9146;48.074;11.968;2022-09-17T00:04:54;16.53;;;8.77;;
18042;SDS011;9146;48.074;11.968;2022-09-17T00:07:21;14.10;;;10.73;;
18042;SDS011;9146;48.074;11.968;2022-09-17T00:09:48;14.10;;;10.37;;
18042;SDS011;9146;48.074;11.968;2022-09-17T00:12:15;13.67;;;9.93;;
18042;SDS011;9146;48.074;11.968;2022-09-17T00:14:43;15.43;;;10.80;;
18042;SDS011;9146;48.074;11.968;2022-09-17T00:17:10;19.50;;;10.90;;
18042;SDS011;9146;48.074;11.968;2022-09-17T00:19:37;17.30;;;10.80;;
18042;SDS011;9146;48.074;11.968;2022-09-17T00:22:05;14.80;;;10.30;;
18042;SDS011;9146;48.074;11.968;2022-09-17T00:24:31;14.03;;;9.10;;
18042;SDS011;9146;48.074;11.968;2022-09-17T00:26:58;14.53;;;9.37;;
18042;SDS011;9146;48.074;11.968;2022-09-17T00:29:25;15.80;;;10.13;;
18042;SDS011;9146;48.074;11.968;2022-09-17T00:31:54;14.40;;;9.17;;
18042;SDS011;9146;48.074;11.968;2022-09-17T00:34:20;11.93;;;8.20;;
18042;SDS011;9146;48.074;11.968;2022-09-17T00:36:47;13.33;;;9.67;;
18042;SDS011;9146;48.074;11.968;2022-09-17T00:39:14;11.93;;;8.90;;
18042;SDS011;9146;48.074;11.968;2022-09-17T00:41:41;10.00;;;8.20;;
18042;SDS011;9146;48.074;11.968;2022-09-17T00:47:08;10.77;;;7.70;;
18042;SDS011;9146;48.074;11.968;2022-09-17T00:49:39;8.57;;;6.93;;
18042;SDS011;9146;48.074;11.968;2022-09-17T00:52:08;12.63;;;7.00;;
18042;SDS011;9146;48.074;11.968;2022-09-17T00:54:39;13.13;;;6.80;;
18042;SDS011;9146;48.074;11.968;2022-09-17T00:57:09;8.80;;;6.93;;
18042;SDS011;9146;48.074;11.968;2022-09-17T00:59:36;7.63;;;6.53;;
18042;SDS011;9146;48.074;11.968;2022-09-17T01:02:04;7.70;;;5.27;;
18042;SDS011;9146;48.074;11.968;2022-09-17T01:04:32;6.40;;;5.70;;
18042;SDS011;9146;48.074;11.968;2022-09-17T01:07:01;9.30;;;6.03;;
18042;SDS011;9146;48.074;11.968;2022-09-17T01:09:35;6.03;;;5.50;;
18042;SDS011;9146;48.074;11.968;2022-09-17T01:12:14;10.73;;;6.70;;
18042;SDS011;9146;48.074;11.968;2022-09-17T01:15:02;6.60;;;5.50;;
18042;SDS011;9146;48.074;11.968;2022-09-17T01:17:41;7.10;;;5.33;;
18042;SDS011;9146;48.074;11.968;2022-09-17T01:20:30;13.20;;;5.43;;
18042;SDS011;9146;48.074;11.968;2022-09-17T01:23:28;7.93;;;5.03;;
18042;SDS011;9146;48.074;11.968;2022-09-17T01:26:14;5.80;;;4.60;;
18042;SDS011;9146;48.074;11.968;2022-09-17T01:28:55;6.17;;;4.10;;
18042;SDS011;9146;48.074;11.968;2022-09-17T01:31:33;4.10;;;3.80;;
18042;SDS011;9146;48.074;11.968;2022-09-17T01:34:10;4.30;;;3.87;;
18042;SDS011;9146;48.074;11.968;2022-09-17T01:36:47;5.50;;;3.43;;
18042;SDS011;9146;48.074;11.968;2022-09-17T01:39:26;5.70;;;3.47;;
18042;SDS011;9146;48.074;11.968;2022-09-17T01:41:59;4.30;;;3.80;;
18042;SDS011;9146;48.074;11.968;2022-09-17T01:44:34;3.20;;;2.90;;
18042;SDS011;9146;48.074;11.968;2022-09-17T01:47:10;3.27;;;3.07;;
18042;SDS011;9146;48.074;11.968;2022-09-17T01:49:42;5.13;;;3.07;;
18042;SDS011;9146;48.074;11.968;2022-09-17T01:52:10;5.20;;;3.30;;
18042;SDS011;9146;48.074;11.968;2022-09-17T01:54:41;3.30;;;2.93;;
18042;SDS011;9146;48.074;11.968;2022-09-17T01:57:11;2.90;;;2.70;;
18042;SDS011;9146;48.074;11.968;2022-09-17T01:59:43;3.40;;;3.13;;
18042;SDS011;9146;48.074;11.968;2022-09-17T02:02:15;4.33;;;2.63;;
18042;SDS011;9146;48.074;11.968;2022-09-17T02:04:50;2.57;;;2.37;;
18042;SDS011;9146;48.074;11.968;2022-09-17T02:07:22;6.00;;;3.00;;
18042;SDS011;9146;48.074;11.968;2022-09-17T02:09:52;3.13;;;2.80;;
18042;SDS011;9146;48.074;11.968;2022-09-17T02:12:26;3.70;;;3.30;;
18042;SDS011;9146;48.074;11.968;2022-09-17T02:14:57;13.83;;;3.50;;
18042;SDS011;9146;48.074;11.968;2022-09-17T02:17:30;4.03;;;3.20;;
18042;SDS011;9146;48.074;11.968;2022-09-17T02:20:00;4.10;;;2.93;;
18042;SDS011;9146;48.074;11.968;2022-09-17T02:22:29;5.13;;;3.00;;
18042;SDS011;9146;48.074;11.968;2022-09-17T02:25:03;3.20;;;2.90;;
18042;SDS011;9146;48.074;11.968;2022-09-17T02:27:41;2.70;;;2.50;;
18042;SDS011;9146;48.074;11.968;2022-09-17T02:30:16;2.97;;;2.77;;
18042;SDS011;9146;48.074;11.968;2022-09-17T02:32:45;3.40;;;2.70;;
18042;SDS011;9146;48.074;11.968;2022-09-17T02:35:12;6.93;;;3.20;;
18042;SDS011;9146;48.074;11.968;2022-09-17T02:37:40;2.70;;;2.50;;
18042;SDS011;9146;48.074;11.968;2022-09-17T02:40:08;3.63;;;3.10;;
18042;SDS011;9146;48.074;11.968;2022-09-17T02:42:39;3.00;;;2.80;;
18042;SDS011;9146;48.074;11.968;2022-09-17T02:45:21;4.50;;;3.40;;
18042;SDS011;9146;48.074;11.968;2022-09-17T02:48:03;3.80;;;3.40;;
18042;SDS011;9146;48.074;11.968;2022-09-17T02:50:46;5.33;;;4.20;;
18042;SDS011;9146;48.074;11.968;2022-09-17T02:53:30;4.37;;;4.00;;
18042;SDS011;9146;48.074;11.968;2022-09-17T02:56:06;4.23;;;3.83;;
18042;SDS011;9146;48.074;11.968;2022-09-17T02:58:42;7.40;;;4.83;;
18042;SDS011;9146;48.074;11.968;2022-09-17T03:01:16;6.17;;;3.70;;
18042;SDS011;9146;48.074;11.968;2022-09-17T03:03:50;4.50;;;3.97;;
18042;SDS011;9146;48.074;11.968;2022-09-17T03:06:20;4.57;;;4.17;;
18042;SDS011;9146;48.074;11.968;2022-09-17T03:08:48;3.83;;;3.37;;
18042;SDS011;9146;48.074;11.968;2022-09-17T03:11:15;5.97;;;2.93;;
18042;SDS011;9146;48.074;11.968;2022-09-17T03:13:42;3.90;;;3.60;;
18042;SDS011;9146;48.074;11.968;2022-09-17T03:16:09;4.30;;;3.50;;
18042;SDS011;9146;48.074;11.968;2022-09-17T03:18:36;6.57;;;3.37;;
18042;SDS011;9146;48.074;11.968;2022-09-17T03:21:04;4.50;;;4.20;;
18042;SDS011;9146;48.074;11.968;2022-09-17T03:23:31;3.97;;;3.67;;
18042;SDS011;9146;48.074;11.968;2022-09-17T03:25:58;3.83;;;3.53;;
18042;SDS011;9146;48.074;11.968;2022-09-17T03:28:25;3.73;;;3.43;;
18042;SDS011;9146;48.074;11.968;2022-09-17T03:30:52;5.30;;;3.80;;
18042;SDS011;9146;48.074;11.968;2022-09-17T03:33:19;4.17;;;3.87;;
18042;SDS011;9146;48.074;11.968;2022-09-17T03:35:46;5.07;;;4.17;;
18042;SDS011;9146;48.074;11.968;2022-09-17T03:38:15;6.40;;;4.50;;
18042;SDS011;9146;48.074;11.968;2022-09-17T03:40:42;3.70;;;3.40;;
18042;SDS011;9146;48.074;11.968;2022-09-17T03:43:09;6.83;;;4.27;;
18042;SDS011;9146;48.074;11.968;2022-09-17T03:45:36;3.27;;;3.07;;
18042;SDS011;9146;48.074;11.968;2022-09-17T03:48:03;7.10;;;3.53;;
18042;SDS011;9146;48.074;11.968;2022-09-17T03:50:30;4.10;;;3.37;;
18042;SDS011;9146;48.074;11.968;2022-09-17T03:52:57;7.07;;;2.90;;
18042;SDS011;9146;48.074;11.968;2022-09-17T03:55:25;4.63;;;4.03;;
18042;SDS011;9146;48.074;11.968;2022-09-17T03:57:52;5.53;;;3.50;;
18042;SDS011;9146;48.074;11.968;2022-09-17T04:00:20;5.87;;;3.60;;
18042;SDS011;9146;48.074;11.968;2022-09-17T04:02:47;3.23;;;3.03;;
18042;SDS011;9146;48.074;11.968;2022-09-17T04:05:14;3.50;;;3.20;;
18042;SDS011;9146;48.074;11.968;2022-09-17T04:07:41;6.60;;;3.27;;
18042;SDS011;9146;48.074;11.968;2022-09-17T04:10:08;5.33;;;3.60;;
18042;SDS011;9146;48.074;11.968;2022-09-17T04:12:36;3.70;;;2.87;;
18042;SDS011;9146;48.074;11.968;2022-09-17T04:15:03;4.70;;;3.30;;
18042;SDS011;9146;48.074;11.968;2022-09-17T04:17:31;3.37;;;3.17;;
18042;SDS011;9146;48.074;11.968;2022-09-17T04:19:58;4.80;;;3.00;;
18042;SDS011;9146;48.074;11.968;2022-09-17T04:22:25;5.80;;;3.30;;
18042;SDS011;9146;48.074;11.968;2022-09-17T04:24:51;3.40;;;2.77;;
18042;SDS011;9146;48.074;11.968;2022-09-17T04:27:18;5.60;;;3.50;;
18042;SDS011;9146;48.074;11.968;2022-09-17T04:29:47;3.87;;;3.50;;
18042;SDS011;9146;48.074;11.968;2022-09-17T04:32:14;5.53;;;3.00;;
18042;SDS011;9146;48.074;11.968;2022-09-17T04:34:40;4.73;;;3.10;;
18042;SDS011;9146;48.074;11.968;2022-09-17T04:37:07;3.83;;;3.43;;
18042;SDS011;9146;48.074;11.968;2022-09-17T04:39:34;8.40;;;3.97;;
18042;SDS011;9146;48.074;11.968;2022-09-17T04:42:02;10.40;;;3.87;;
18042;SDS011;9146;48.074;11.968;2022-09-17T04:44:29;6.03;;;4.03;;
18042;SDS011;9146;48.074;11.968;2022-09-17T04:46:57;4.53;;;3.97;;
18042;SDS011;9146;48.074;11.968;2022-09-17T04:49:26;9.73;;;6.60;;
18042;SDS011;9146;48.074;11.968;2022-09-17T04:51:56;7.37;;;5.80;;
18042;SDS011;9146;48.074;11.968;2022-09-17T04:54:24;7.33;;;5.20;;
18042;SDS011;9146;48.074;11.968;2022-09-17T04:56:51;12.17;;;7.60;;
18042;SDS011;9146;48.074;11.968;2022-09-17T04:59:18;54.20;;;25.67;;
18042;SDS011;9146;48.074;11.968;2022-09-17T05:01:46;67.60;;;25.60;;
18042;SDS011;9146;48.074;11.968;2022-09-17T05:04:20;14.70;;;10.37;;
18042;SDS011;9146;48.074;11.968;2022-09-17T05:06:49;9.40;;;5.80;;
18042;SDS011;9146;48.074;11.968;2022-09-17T05:09:18;15.33;;;12.00;;
18042;SDS011;9146;48.074;11.968;2022-09-17T05:11:45;14.87;;;9.53;;
18042;SDS011;9146;48.074;11.968;2022-09-17T05:14:11;9.20;;;5.20;;
18042;SDS011;9146;48.074;11.968;2022-09-17T05:16:39;3.70;;;3.40;;
18042;SDS011;9146;48.074;11.968;2022-09-17T05:19:06;9.53;;;5.50;;
18042;SDS011;9146;48.074;11.968;2022-09-17T05:21:34;6.30;;;5.27;;
18042;SDS011;9146;48.074;11.968;2022-09-17T05:24:01;7.93;;;4.90;;
18042;SDS011;9146;48.074;11.968;2022-09-17T05:26:28;5.17;;;4.67;;
18042;SDS011;9146;48.074;11.968;2022-09-17T05:28:55;3.20;;;2.93;;
18042;SDS011;9146;48.074;11.968;2022-09-17T05:31:22;3.10;;;2.90;;
18042;SDS011;9146;48.074;11.968;2022-09-17T05:33:49;3.00;;;2.80;;
18042;SDS011;9146;48.074;11.968;2022-09-17T05:36:16;6.07;;;2.60;;
18042;SDS011;9146;48.074;11.968;2022-09-17T05:38:44;6.90;;;2.63;;
18042;SDS011;9146;48.074;11.968;2022-09-17T05:41:11;3.60;;;2.50;;
18042;SDS011;9146;48.074;11.968;2022-09-17T05:43:38;10.73;;;2.63;;
18042;SDS011;9146;48.074;11.968;2022-09-17T05:46:07;4.20;;;3.23;;
18042;SDS011;9146;48.074;11.968;2022-09-17T05:48:35;2.33;;;2.20;;
18042;SDS011;9146;48.074;11.968;2022-09-17T05:51:02;6.20;;;3.30;;
18042;SDS011;9146;48.074;11.968;2022-09-17T05:53:28;3.57;;;2.40;;
18042;SDS011;9146;48.074;11.968;2022-09-17T05:55:57;5.03;;;2.70;;
18042;SDS011;9146;48.074;11.968;2022-09-17T05:58:24;3.47;;;2.33;;
18042;SDS011;9146;48.074;11.968;2022-09-17T06:00:53;7.97;;;2.00;;
18042;SDS011;9146;48.074;11.968;2022-09-17T06:03:20;4.00;;;2.13;;
18042;SDS011;9146;48.074;11.968;2022-09-17T06:05:51;3.83;;;2.30;;
18042;SDS011;9146;48.074;11.968;2022-09-17T06:08:19;3.63;;;2.13;;
18042;SDS011;9146;48.074;11.968;2022-09-17T06:10:46;5.30;;;2.20;;
18042;SDS011;9146;48.074;11.968;2022-09-17T06:13:14;4.70;;;2.00;;
18042;SDS011;9146;48.074;11.968;2022-09-17T06:15:42;3.83;;;2.23;;
18042;SDS011;9146;48.074;11.968;2022-09-17T06:18:14;2.30;;;2.10;;
18042;SDS011;9146;48.074;11.968;2022-09-17T06:20:41;4.53;;;1.97;;
18042;SDS011;9146;48.074;11.968;2022-09-17T06:23:07;5.37;;;2.70;;
18042;SDS011;9146;48.074;11.968;2022-09-17T06:25:34;2.53;;;2.07;;
18042;SDS011;9146;48.074;11.968;2022-09-17T06:28:01;2.63;;;2.00;;
18042;SDS011;9146;48.074;11.968;2022-09-17T06:30:30;4.53;;;2.53;;
18042;SDS011;9146;48.074;11.968;2022-09-17T06:32:58;8.57;;;2.40;;
18042;SDS011;9146;48.074;11.968;2022-09-17T06:35:26;4.57;;;2.03;;
18042;SDS011;9146;48.074;11.968;2022-09-17T06:37:53;4.00;;;2.33;;
18042;SDS011;9146;48.074;11.968;2022-09-17T06:40:20;8.03;;;2.20;;
18042;SDS011;9146;48.074;11.968;2022-09-17T06:42:47;4.63;;;2.00;;
18042;SDS011;9146;48.074;11.968;2022-09-17T06:45:15;4.53;;;2.50;;
18042;SDS011;9146;48.074;11.968;2022-09-17T06:47:43;2.23;;;1.70;;
18042;SDS011;9146;48.074;11.968;2022-09-17T06:50:10;4.00;;;2.63;;
18042;SDS011;9146;48.074;11.968;2022-09-17T06:52:36;3.50;;;2.13;;
18042;SDS011;9146;48.074;11.968;2022-09-17T06:55:04;5.00;;;1.90;;
18042;SDS011;9146;48.074;11.968;2022-09-17T06:57:31;5.67;;;2.47;;
18042;SDS011;9146;48.074;11.968;2022-09-17T06:59:58;1.60;;;1.50;;
18042;SDS011;9146;48.074;11.968;2022-09-17T07:02:25;2.87;;;1.70;;
18042;SDS011;9146;48.074;11.968;2022-09-17T07:04:54;4.20;;;1.67;;
18042;SDS011;9146;48.074;11.968;2022-09-17T07:07:20;6.10;;;1.90;;
18042;SDS011;9146;48.074;11.968;2022-09-17T07:09:47;4.13;;;1.50;;
18042;SDS011;9146;48.074;11.968;2022-09-17T07:12:14;5.90;;;1.70;;
18042;SDS011;9146;48.074;11.968;2022-09-17T07:14:41;6.30;;;1.60;;
18042;SDS011;9146;48.074;11.968;2022-09-17T07:17:08;2.40;;;1.60;;
18042;SDS011;9146;48.074;11.968;2022-09-17T07:19:35;3.23;;;1.97;;
18042;SDS011;9146;48.074;11.968;2022-09-17T07:22:04;3.43;;;1.80;;
18042;SDS011;9146;48.074;11.968;2022-09-17T07:24:31;3.97;;;2.20;;
18042;SDS011;9146;48.074;11.968;2022-09-17T07:26:58;13.57;;;2.27;;
18042;SDS011;9146;48.074;11.968;2022-09-17T07:29:25;3.17;;;1.57;;
18042;SDS011;9146;48.074;11.968;2022-09-17T07:31:54;2.80;;;1.67;;
18042;SDS011;9146;48.074;11.968;2022-09-17T07:34:27;4.67;;;1.77;;
18042;SDS011;9146;48.074;11.968;2022-09-17T07:36:54;3.40;;;1.60;;
18042;SDS011;9146;48.074;11.968;2022-09-17T07:39:22;3.93;;;1.93;;
18042;SDS011;9146;48.074;11.968;2022-09-17T07:41:49;9.90;;;2.50;;
18042;SDS011;9146;48.074;11.968;2022-09-17T07:44:16;7.60;;;2.00;;
18042;SDS011;9146;48.074;11.968;2022-09-17T07:46:43;9.90;;;2.27;;
18042;SDS011;9146;48.074;11.968;2022-09-17T07:49:10;3.03;;;2.40;;
18042;SDS011;9146;48.074;11.968;2022-09-17T07:51:37;10.67;;;3.53;;
18042;SDS011;9146;48.074;11.968;2022-09-17T07:54:04;4.50;;;1.80;;
18042;SDS011;9146;48.074;11.968;2022-09-17T07:56:32;3.83;;;1.80;;
18042;SDS011;9146;48.074;11.968;2022-09-17T07:59:00;3.97;;;1.87;;
18042;SDS011;9146;48.074;11.968;2022-09-17T08:01:28;4.17;;;1.70;;
18042;SDS011;9146;48.074;11.968;2022-09-17T08:03:58;6.53;;;1.77;;
18042;SDS011;9146;48.074;11.968;2022-09-17T08:06:26;2.73;;;1.33;;
18042;SDS011;9146;48.074;11.968;2022-09-17T08:08:53;2.40;;;2.03;;
18042;SDS011;9146;48.074;11.968;2022-09-17T08:11:21;2.70;;;1.40;;
18042;SDS011;9146;48.074;11.968;2022-09-17T08:13:51;7.10;;;1.60;;
18042;SDS011;9146;48.074;11.968;2022-09-17T08:16:19;1.70;;;1.30;;
18042;SDS011;9146;48.074;11.968;2022-09-17T08:18:47;2.77;;;1.70;;
18042;SDS011;9146;48.074;11.968;2022-09-17T08:21:15;2.67;;;1.63;;
18042;SDS011;9146;48.074;11.968;2022-09-17T08:23:43;9.20;;;2.13;;
18042;SDS011;9146;48.074;11.968;2022-09-17T08:26:11;5.23;;;2.10;;
18042;SDS011;9146;48.074;11.968;2022-09-17T08:28:39;2.33;;;1.40;;
18042;SDS011;9146;48.074;11.968;2022-09-17T08:31:11;4.10;;;1.90;;
18042;SDS011;9146;48.074;11.968;2022-09-17T08:33:39;6.13;;;2.30;;
18042;SDS011;9146;48.074;11.968;2022-09-17T08:36:07;3.97;;;1.30;;
18042;SDS011;9146;48.074;11.968;2022-09-17T08:38:36;6.67;;;1.87;;
18042;SDS011;9146;48.074;11.968;2022-09-17T08:41:08;5.77;;;1.70;;
18042;SDS011;9146;48.074;11.968;2022-09-17T08:43:45;4.33;;;1.77;;
18042;SDS011;9146;48.074;11.968;2022-09-17T08:46:18;3.50;;;1.80;;
18042;SDS011;9146;48.074;11.968;2022-09-17T08:48:46;4.40;;;1.63;;
18042;SDS011;9146;48.074;11.968;2022-09-17T08:51:22;3.50;;;1.20;;
18042;SDS011;9146;48.074;11.968;2022-09-17T08:53:57;3.53;;;1.67;;
18042;SDS011;9146;48.074;11.968;2022-09-17T08:56:33;2.23;;;1.20;;
18042;SDS011;9146;48.074;11.968;2022-09-17T08:59:04;7.10;;;1.60;;
18042;SDS011;9146;48.074;11.968;2022-09-17T09:01:44;3.10;;;1.87;;
18042;SDS011;9146;48.074;11.968;2022-09-17T09:07:23;1.83;;;1.60;;
18042;SDS011;9146;48.074;11.968;2022-09-17T09:09:54;3.57;;;1.43;;
18042;SDS011;9146;48.074;11.968;2022-09-17T09:12:30;5.83;;;1.77;;
18042;SDS011;9146;48.074;11.968;2022-09-17T09:15:01;6.73;;;1.47;;
18042;SDS011;9146;48.074;11.968;2022-09-17T09:17:33;2.23;;;1.37;;
18042;SDS011;9146;48.074;11.968;2022-09-17T09:20:07;2.00;;;1.33;;
18042;SDS011;9146;48.074;11.968;2022-09-17T09:22:44;2.73;;;1.10;;
18042;SDS011;9146;48.074;11.968;2022-09-17T09:25:21;7.20;;;1.60;;
18042;SDS011;9146;48.074;11.968;2022-09-17T09:27:54;6.00;;;1.47;;
18042;SDS011;9146;48.074;11.968;2022-09-17T09:30:29;3.50;;;1.67;;
18042;SDS011;9146;48.074;11.968;2022-09-17T09:33:08;4.67;;;1.63;;
18042;SDS011;9146;48.074;11.968;2022-09-17T09:35:40;3.77;;;1.40;;
18042;SDS011;9146;48.074;11.968;2022-09-17T09:38:11;9.43;;;2.20;;
18042;SDS011;9146;48.074;11.968;2022-09-17T09:40:47;2.90;;;2.10;;
18042;SDS011;9146;48.074;11.968;2022-09-17T09:43:21;3.23;;;2.03;;
18042;SDS011;9146;48.074;11.968;2022-09-17T09:46:05;7.00;;;2.40;;
18042;SDS011;9146;48.074;11.968;2022-09-17T09:48:44;4.67;;;1.87;;
18042;SDS011;9146;48.074;11.968;2022-09-17T09:51:27;7.10;;;2.40;;
18042;SDS011;9146;48.074;11.968;2022-09-17T09:54:06;5.60;;;2.73;;
18042;SDS011;9146;48.074;11.968;2022-09-17T09:56:50;5.03;;;2.40;;
18042;SDS011;9146;48.074;11.968;2022-09-17T09:59:22;5.90;;;1.90;;
18042;SDS011;9146;48.074;11.968;2022-09-17T10:01:49;4.13;;;2.57;;
18042;SDS011;9146;48.074;11.968;2022-09-17T10:04:19;11.03;;;2.10;;
18042;SDS011;9146;48.074;11.968;2022-09-17T10:06:48;6.60;;;3.53;;
18042;SDS011;9146;48.074;11.968;2022-09-17T10:09:18;5.77;;;2.67;;
18042;SDS011;9146;48.074;11.968;2022-09-17T10:11:59;9.43;;;2.87;;
18042;SDS011;9146;48.074;11.968;2022-09-17T10:14:28;6.60;;;3.30;;
18042;SDS011;9146;48.074;11.968;2022-09-17T10:17:09;11.90;;;3.37;;
18042;SDS011;9146;48.074;11.968;2022-09-17T10:19:41;5.47;;;3.07;;
18042;SDS011;9146;48.074;11.968;2022-09-17T10:22:18;6.57;;;2.73;;
18042;SDS011;9146;48.074;11.968;2022-09-17T10:24:51;10.90;;;3.73;;
18042;SDS011;9146;48.074;11.968;2022-09-17T10:27:20;7.73;;;3.70;;
18042;SDS011;9146;48.074;11.968;2022-09-17T10:29:50;6.33;;;2.93;;
18042;SDS011;9146;48.074;11.968;2022-09-17T10:32:23;5.37;;;3.30;;
18042;SDS011;9146;48.074;11.968;2022-09-17T10:34:58;7.77;;;3.63;;
18042;SDS011;9146;48.074;11.968;2022-09-17T10:37:32;7.53;;;3.57;;
18042;SDS011;9146;48.074;11.968;2022-09-17T10:40:01;6.80;;;4.20;;
18042;SDS011;9146;48.074;11.968;2022-09-17T10:45:43;7.43;;;4.17;;
18042;SDS011;9146;48.074;11.968;2022-09-17T10:48:20;5.83;;;3.70;;
18042;SDS011;9146;48.074;11.968;2022-09-17T10:50:49;6.00;;;4.07;;
18042;SDS011;9146;48.074;11.968;2022-09-17T10:53:18;4.60;;;4.20;;
18042;SDS011;9146;48.074;11.968;2022-09-17T10:55:49;7.63;;;4.73;;
18042;SDS011;9146;48.074;11.968;2022-09-17T10:58:23;4.80;;;4.03;;
18042;SDS011;9146;48.074;11.968;2022-09-17T11:01:01;5.30;;;3.37;;
18042;SDS011;9146;48.074;11.968;2022-09-17T11:03:48;7.10;;;4.80;;
18042;SDS011;9146;48.074;11.968;2022-09-17T11:06:31;4.90;;;4.37;;
18042;SDS011;9146;48.074;11.968;2022-09-17T11:09:39;6.80;;;4.40;;
18042;SDS011;9146;48.074;11.968;2022-09-17T11:12:18;5.60;;;4.03;;
18042;SDS011;9146;48.074;11.968;2022-09-17T11:14:57;9.93;;;4.83;;
18042;SDS011;9146;48.074;11.968;2022-09-17T11:17:38;6.77;;;4.23;;
18042;SDS011;9146;48.074;11.968;2022-09-17T11:20:19;8.53;;;4.37;;
18042;SDS011;9146;48.074;11.968;2022-09-17T11:22:59;5.90;;;4.60;;
18042;SDS011;9146;48.074;11.968;2022-09-17T11:25:43;4.90;;;3.93;;
18042;SDS011;9146;48.074;11.968;2022-09-17T11:28:15;6.40;;;3.80;;
18042;SDS011;9146;48.074;11.968;2022-09-17T11:30:55;3.80;;;3.50;;
18042;SDS011;9146;48.074;11.968;2022-09-17T11:33:39;8.03;;;3.60;;
18042;SDS011;9146;48.074;11.968;2022-09-17T11:36:19;7.70;;;3.03;;
18042;SDS011;9146;48.074;11.968;2022-09-17T11:38:50;5.97;;;3.80;;
18042;SDS011;9146;48.074;11.968;2022-09-17T11:41:21;7.90;;;3.70;;
18042;SDS011;9146;48.074;11.968;2022-09-17T11:43:55;4.40;;;3.70;;
18042;SDS011;9146;48.074;11.968;2022-09-17T11:46:29;3.77;;;2.90;;
18042;SDS011;9146;48.074;11.968;2022-09-17T11:49:01;4.43;;;3.00;;
18042;SDS011;9146;48.074;11.968;2022-09-17T11:51:31;3.80;;;3.40;;
18042;SDS011;9146;48.074;11.968;2022-09-17T11:54:05;5.30;;;3.93;;
18042;SDS011;9146;48.074;11.968;2022-09-17T11:56:34;7.50;;;4.10;;
18042;SDS011;9146;48.074;11.968;2022-09-17T11:59:09;4.93;;;3.37;;
18042;SDS011;9146;48.074;11.968;2022-09-17T12:01:43;6.40;;;3.37;;
18042;SDS011;9146;48.074;11.968;2022-09-17T12:04:21;3.63;;;2.97;;
18042;SDS011;9146;48.074;11.968;2022-09-17T12:06:59;10.13;;;3.30;;
18042;SDS011;9146;48.074;11.968;2022-09-17T12:09:37;5.50;;;3.17;;
18042;SDS011;9146;48.074;11.968;2022-09-17T12:12:09;7.33;;;2.80;;
18042;SDS011;9146;48.074;11.968;2022-09-17T12:14:43;6.37;;;2.57;;
18042;SDS011;9146;48.074;11.968;2022-09-17T12:17:14;6.17;;;3.10;;
18042;SDS011;9146;48.074;11.968;2022-09-17T12:19:45;12.53;;;3.37;;
18042;SDS011;9146;48.074;11.968;2022-09-17T12:22:16;6.13;;;3.77;;
18042;SDS011;9146;48.074;11.968;2022-09-17T12:24:50;10.60;;;3.43;;
18042;SDS011;9146;48.074;11.968;2022-09-17T12:27:21;5.03;;;2.83;;
18042;SDS011;9146;48.074;11.968;2022-09-17T12:30:04;8.60;;;4.00;;
18042;SDS011;9146;48.074;11.968;2022-09-17T12:32:38;10.33;;;3.80;;
18042;SDS011;9146;48.074;11.968;2022-09-17T12:35:19;11.60;;;3.70;;
18042;SDS011;9146;48.074;11.968;2022-09-17T12:37:59;5.70;;;3.70;;
18042;SDS011;9146;48.074;11.968;2022-09-17T12:40:39;16.90;;;4.00;;
18042;SDS011;9146;48.074;11.968;2022-09-17T12:43:19;7.07;;;4.23;;
18042;SDS011;9146;48.074;11.968;2022-09-17T12:46:07;12.00;;;7.60;;
18042;SDS011;9146;48.074;11.968;2022-09-17T12:48:51;3.60;;;3.27;;
18042;SDS011;9146;48.074;11.968;2022-09-17T12:51:42;6.40;;;3.03;;
18042;SDS011;9146;48.074;11.968;2022-09-17T12:54:22;7.07;;;3.07;;
18042;SDS011;9146;48.074;11.968;2022-09-17T12:57:09;3.83;;;2.53;;
18042;SDS011;9146;48.074;11.968;2022-09-17T12:59:47;7.07;;;3.03;;
18042;SDS011;9146;48.074;11.968;2022-09-17T13:02:21;10.40;;;3.70;;
18042;SDS011;9146;48.074;11.968;2022-09-17T13:05:04;7.67;;;3.13;;
18042;SDS011;9146;48.074;11.968;2022-09-17T13:08:20;3.90;;;2.33;;
18042;SDS011;9146;48.074;11.968;2022-09-17T13:11:09;9.33;;;2.60;;
18042;SDS011;9146;48.074;11.968;2022-09-17T13:13:51;5.53;;;2.53;;
18042;SDS011;9146;48.074;11.968;2022-09-17T13:16:24;6.40;;;2.37;;
18042;SDS011;9146;48.074;11.968;2022-09-17T13:19:03;3.87;;;2.40;;
18042;SDS011;9146;48.074;11.968;2022-09-17T13:21:41;2.93;;;2.33;;
18042;SDS011;9146;48.074;11.968;2022-09-17T13:24:16;2.57;;;2.13;;
18042;SDS011;9146;48.074;11.968;2022-09-17T13:26:45;5.50;;;2.60;;
18042;SDS011;9146;48.074;11.968;2022-09-17T13:29:16;4.43;;;2.33;;
18042;SDS011;9146;48.074;11.968;2022-09-17T13:38:11;3.00;;;2.73;;
18042;SDS011;9146;48.074;11.968;2022-09-17T13:40:38;3.70;;;2.90;;
18042;SDS011;9146;48.074;11.968;2022-09-17T13:43:06;4.00;;;2.97;;
18042;SDS011;9146;48.074;11.968;2022-09-17T13:48:35;3.70;;;3.07;;
18042;SDS011;9146;48.074;11.968;2022-09-17T13:54:15;9.17;;;3.10;;
18042;SDS011;9146;48.074;11.968;2022-09-17T13:56:45;3.80;;;2.70;;
18042;SDS011;9146;48.074;11.968;2022-09-17T13:59:15;6.73;;;2.87;;
18042;SDS011;9146;48.074;11.968;2022-09-17T14:01:57;3.73;;;2.47;;
18042;SDS011;9146;48.074;11.968;2022-09-17T14:04:31;3.53;;;2.30;;
18042;SDS011;9146;48.074;11.968;2022-09-17T14:07:31;7.10;;;2.43;;
18042;SDS011;9146;48.074;11.968;2022-09-17T14:09:59;3.40;;;3.00;;
18042;SDS011;9146;48.074;11.968;2022-09-17T14:21:28;2.77;;;2.50;;
18042;SDS011;9146;48.074;11.968;2022-09-17T14:23:57;2.40;;;2.20;;
18042;SDS011;9146;48.074;11.968;2022-09-17T14:32:35;6.37;;;2.50;;
18042;SDS011;9146;48.074;11.968;2022-09-17T14:35:14;8.23;;;2.37;;
18042;SDS011;9146;48.074;11.968;2022-09-17T14:37:46;7.70;;;2.70;;
18042;SDS011;9146;48.074;11.968;2022-09-17T14:40:19;4.37;;;2.30;;
18042;SDS011;9146;48.074;11.968;2022-09-17T14:42:49;6.10;;;2.90;;
18042;SDS011;9146;48.074;11.968;2022-09-17T14:45:20;2.00;;;1.80;;
18042;SDS011;9146;48.074;11.968;2022-09-17T14:48:17;2.10;;;2.00;;
18042;SDS011;9146;48.074;11.968;2022-09-17T14:56:51;1.93;;;1.73;;
18042;SDS011;9146;48.074;11.968;2022-09-17T14:59:24;3.23;;;1.37;;
18042;SDS011;9146;48.074;11.968;2022-09-17T15:02:17;6.90;;;1.73;;
18042;SDS011;9146;48.074;11.968;2022-09-17T15:04:52;1.43;;;1.33;;
18042;SDS011;9146;48.074;11.968;2022-09-17T15:07:21;1.90;;;1.80;;
18042;SDS011;9146;48.074;11.968;2022-09-17T15:09:49;2.33;;;1.60;;
18042;SDS011;9146;48.074;11.968;2022-09-17T15:12:19;2.60;;;1.73;;
18042;SDS011;9146;48.074;11.968;2022-09-17T15:14:53;2.70;;;1.60;;
18042;SDS011;9146;48.074;11.968;2022-09-17T15:17:22;1.47;;;1.37;;
18042;SDS011;9146;48.074;11.968;2022-09-17T15:19:49;2.77;;;1.80;;
18042;SDS011;9146;48.074;11.968;2022-09-17T15:22:21;2.87;;;1.60;;
18042;SDS011;9146;48.074;11.968;2022-09-17T15:24:53;2.63;;;1.13;;
18042;SDS011;9146;48.074;11.968;2022-09-17T15:27:25;1.60;;;1.50;;
18042;SDS011;9146;48.074;11.968;2022-09-17T15:29:55;4.70;;;2.20;;
18042;SDS011;9146;48.074;11.968;2022-09-17T15:32:26;1.83;;;1.40;;
18042;SDS011;9146;48.074;11.968;2022-09-17T15:35:15;3.20;;;1.67;;
18042;SDS011;9146;48.074;11.968;2022-09-17T15:37:49;3.90;;;1.67;;
18042;SDS011;9146;48.074;11.968;2022-09-17T15:40:26;1.47;;;1.27;;
18042;SDS011;9146;48.074;11.968;2022-09-17T15:43:05;4.13;;;1.50;;
18042;SDS011;9146;48.074;11.968;2022-09-17T15:45:42;2.30;;;2.00;;
18042;SDS011;9146;48.074;11.968;2022-09-17T15:48:16;3.80;;;1.50;;
18042;SDS011;9146;48.074;11.968;2022-09-17T15:50:49;2.50;;;1.90;;
18042;SDS011;9146;48.074;11.968;2022-09-17T15:53:22;4.00;;;2.33;;
18042;SDS011;9146;48.074;11.968;2022-09-17T15:55:57;2.27;;;1.30;;
18042;SDS011;9146;48.074;11.968;2022-09-17T15:58:28;1.70;;;1.57;;